Cruz Bay, VI

10:43 PM AST on August 28, 2014 (GMT -0400)
Henry E Rohlsen | Change Station
CLOSE
Current Station
Airport
Location: St. Croix,
Elevation: 56 ft
Nearby Weather Stations

Elev 56 ft 17.70 °N, 64.81 °W | Updated 3 minutes ago

Rain
Rain Mist
75 °F
Feels Like 75 °F
N
5
Wind Variable Wind from North

Today
High -- | Low -- °F
--% Chance of Precip.
Yesterday
High -- | Low -- °F
Precip. -- in
6:03 AM 6:36 PM
Waxing Crescent, 11% visible
Pressure 30.05 in
Visibility 3.0 miles
Clouds Mostly Cloudy 2900 ft
Overcast 6500 ft
Dew Point 73 °F
Humidity 94%
Rainfall 0.49 in
Snow Depth Not available.
UV 0 out of 12
Pollen Not available.
Air Quality Not available.
Flu Activity Not available.
SPECI TISX 290240Z 36004KT 3SM RA BR BKN029 OVC065 24/23 A3005 RMK AO2 RAB14 P0038

More Conditions Fewer Conditions

Pressure 30.05 in
Visibility 3.0 miles
Clouds Mostly Cloudy 2900 ft
Overcast 6500 ft
Dew Point 73 °F
Humidity 94%
Rainfall 0.49 in
Snow Depth Not available.
UV 0 out of 12
Pollen Not available.
Air Quality Not available.
Flu Activity Not available.
SPECI TISX 290240Z 36004KT 3SM RA BR BKN029 OVC065 24/23 A3005 RMK AO2 RAB14 P0038

More Conditions Fewer Conditions

10-Day Weather Forecast

Almanac

Astronomy

Aug. 28, 2014 Rise Set
Actual Time 6:03 AM AST 6:36 PM AST
Civil Twilight 5:41 AM AST 6:58 PM AST
Nautical Twilight 5:15 AM AST 7:24 PM AST
Astronomical Twilight 4:49 AM AST 7:50 PM AST
Moon 8:23 AM AST (8/28) 8:30 PM AST (8/28)
Length of Visible Light 13h 17m
Length of Day
12h 32m
Tomorrow will be 0m 58s shorter.
Waxing Crescent, 11% of the Moon is Illuminated
Today
Waxing Crescent
Sep 2
First Quarter
Sep 8
Full
Sep 15
Last Quarter
Sep 24
New

Community

WunderPhotos

Upload Photos

1,748,133 photos uploaded!

Nearby

Snow Depth

Station Depth Elevation
No new snow has been reported.

Earthquake Activity

City Distance Mag. Time & Date
No recent earthquake activity has been reported nearby.
Minimum magnitude displayed is 2.5.

Coastal Water Temperatures

Place Temperature
Yabucoa Harbor, PR 82.9 °F
Esperanza, PR 84.0 °F
Charlotte Amalie, VI 84.9 °F

Nearby Weather Stations